sensor_id;sensor_type;location;lat;lon;timestamp;pressure;altitude;pressure_sealevel;temperature;humidity
6938;BME280;40040;42.706;23.372;2023-03-13T00:01:48;144744.59;;;2.26;72.69
6938;BME280;40040;42.706;23.372;2023-03-13T00:04:15;144694.38;;;2.05;72.41
6938;BME280;40040;42.706;23.372;2023-03-13T00:06:44;144747.03;;;2.27;72.53
6938;BME280;40040;42.706;23.372;2023-03-13T00:09:13;144650.25;;;1.87;72.50
6938;BME280;40040;42.706;23.372;2023-03-13T00:11:40;144759.25;;;2.32;72.23
6938;BME280;40040;42.706;23.372;2023-03-13T00:14:07;144766.66;;;2.35;72.29
6938;BME280;40040;42.706;23.372;2023-03-13T00:16:35;144713.94;;;2.13;72.25
6938;BME280;40040;42.706;23.372;2023-03-13T00:19:04;144736.00;;;2.22;72.71
6938;BME280;40040;42.706;23.372;2023-03-13T00:21:32;144726.19;;;2.18;72.55
6938;BME280;40040;42.706;23.372;2023-03-13T00:24:00;144717.63;;;2.15;72.71
6938;BME280;40040;42.706;23.372;2023-03-13T00:26:27;144731.09;;;2.20;72.62
6938;BME280;40040;42.706;23.372;2023-03-13T00:28:54;144689.47;;;2.03;72.44
6938;BME280;40040;42.706;23.372;2023-03-13T00:31:23;144721.28;;;2.16;73.15
6938;BME280;40040;42.706;23.372;2023-03-13T00:33:51;144718.84;;;2.15;73.54
6938;BME280;40040;42.706;23.372;2023-03-13T00:36:20;144701.69;;;2.08;74.12
6938;BME280;40040;42.706;23.372;2023-03-13T00:38:48;144699.28;;;2.07;73.96
6938;BME280;40040;42.706;23.372;2023-03-13T00:41:17;144684.53;;;2.01;74.56
6938;BME280;40040;42.706;23.372;2023-03-13T00:43:45;144642.91;;;1.84;74.45
6938;BME280;40040;42.706;23.372;2023-03-13T00:46:14;144660.06;;;1.91;74.82
6938;BME280;40040;42.706;23.372;2023-03-13T00:48:41;144628.19;;;1.78;75.07
6938;BME280;40040;42.706;23.372;2023-03-13T00:51:08;144667.41;;;1.94;75.58
6938;BME280;40040;42.706;23.372;2023-03-13T00:53:36;144630.66;;;1.79;75.41
6938;BME280;40040;42.706;23.372;2023-03-13T00:56:05;144664.97;;;1.93;75.43
6938;BME280;40040;42.706;23.372;2023-03-13T00:58:35;144663.72;;;1.93;75.77
6938;BME280;40040;42.706;23.372;2023-03-13T01:01:06;144661.25;;;1.92;76.11
6938;BME280;40040;42.706;23.372;2023-03-13T01:03:34;144598.81;;;1.66;76.46
6938;BME280;40040;42.706;23.372;2023-03-13T01:06:02;144613.53;;;1.72;77.72
6938;BME280;40040;42.706;23.372;2023-03-13T01:08:30;144586.56;;;1.61;78.44
6938;BME280;40040;42.706;23.372;2023-03-13T01:10:57;144522.88;;;1.35;79.81
6938;BME280;40040;42.706;23.372;2023-03-13T01:13:24;144525.31;;;1.36;81.78
6938;BME280;40040;42.706;23.372;2023-03-13T01:15:52;144499.59;;;1.26;83.25
6938;BME280;40040;42.706;23.372;2023-03-13T01:18:19;144449.44;;;1.05;84.56
6938;BME280;40040;42.706;23.372;2023-03-13T01:20:46;144398.03;;;0.84;85.81
6938;BME280;40040;42.706;23.372;2023-03-13T01:23:13;144443.34;;;1.02;86.73
6938;BME280;40040;42.706;23.372;2023-03-13T01:25:40;144439.66;;;1.01;86.54
6938;BME280;40040;42.706;23.372;2023-03-13T01:28:06;144404.16;;;0.86;86.92
6938;BME280;40040;42.706;23.372;2023-03-13T01:30:33;144407.81;;;0.88;87.56
6938;BME280;40040;42.706;23.372;2023-03-13T01:33:02;144396.84;;;0.83;88.67
6938;BME280;40040;42.706;23.372;2023-03-13T01:35:28;144350.34;;;0.64;88.61
6938;BME280;40040;42.706;23.372;2023-03-13T01:37:55;144363.75;;;0.70;88.79
6938;BME280;40040;42.706;23.372;2023-03-13T01:40:22;144358.91;;;0.68;89.29
6938;BME280;40040;42.706;23.372;2023-03-13T01:42:50;144341.75;;;0.61;89.66
6938;BME280;40040;42.706;23.372;2023-03-13T01:48:30;144234.09;;;0.17;90.92
6938;BME280;40040;42.706;23.372;2023-03-13T01:51:02;144312.41;;;0.49;92.07
6938;BME280;40040;42.706;23.372;2023-03-13T01:53:32;144294.03;;;0.41;91.81
6938;BME280;40040;42.706;23.372;2023-03-13T01:56:04;144314.84;;;0.50;91.50
6938;BME280;40040;42.706;23.372;2023-03-13T01:58:32;144278.16;;;0.35;91.44
6938;BME280;40040;42.706;23.372;2023-03-13T02:00:59;144295.28;;;0.42;91.98
6938;BME280;40040;42.706;23.372;2023-03-13T02:03:28;144265.94;;;0.30;92.83
6938;BME280;40040;42.706;23.372;2023-03-13T02:05:57;144272.03;;;0.32;94.05
6938;BME280;40040;42.706;23.372;2023-03-13T02:08:29;144273.25;;;0.33;94.88
6938;BME280;40040;42.706;23.372;2023-03-13T02:11:03;144258.56;;;0.27;94.60
6938;BME280;40040;42.706;23.372;2023-03-13T02:13:33;144232.88;;;0.16;94.12
6938;BME280;40040;42.706;23.372;2023-03-13T02:16:00;144187.63;;;-0.03;94.68
6938;BME280;40040;42.706;23.372;2023-03-13T02:18:29;144226.78;;;0.14;95.43
6938;BME280;40040;42.706;23.372;2023-03-13T02:21:01;143952.94;;;-0.99;96.05
6938;BME280;40040;42.706;23.372;2023-03-13T02:23:35;144128.94;;;-0.27;96.60
6938;BME280;40040;42.706;23.372;2023-03-13T02:26:06;144116.72;;;-0.32;96.84
6938;BME280;40040;42.706;23.372;2023-03-13T02:28:34;144209.66;;;0.07;96.80
6938;BME280;40040;42.706;23.372;2023-03-13T02:31:04;144203.53;;;0.04;96.75
6938;BME280;40040;42.706;23.372;2023-03-13T02:33:35;144170.50;;;-0.10;97.47
6938;BME280;40040;42.706;23.372;2023-03-13T02:36:06;144177.84;;;-0.07;98.07
6938;BME280;40040;42.706;23.372;2023-03-13T02:38:37;144204.75;;;0.05;97.95
6938;BME280;40040;42.706;23.372;2023-03-13T02:41:07;144224.31;;;0.13;98.25
6938;BME280;40040;42.706;23.372;2023-03-13T02:43:35;144241.44;;;0.20;97.52
6938;BME280;40040;42.706;23.372;2023-03-13T02:46:05;144229.19;;;0.15;97.64
6938;BME280;40040;42.706;23.372;2023-03-13T02:48:34;144182.75;;;-0.05;97.81
6938;BME280;40040;42.706;23.372;2023-03-13T02:51:03;144154.63;;;-0.16;99.10
6938;BME280;40040;42.706;23.372;2023-03-13T02:53:32;144177.84;;;-0.07;99.44
6938;BME280;40040;42.706;23.372;2023-03-13T02:56:01;144175.41;;;-0.08;99.98
6938;BME280;40040;42.706;23.372;2023-03-13T02:58:37;144194.97;;;0.00;99.62
6938;BME280;40040;42.706;23.372;2023-03-13T03:01:04;144210.84;;;0.07;98.86
6938;BME280;40040;42.706;23.372;2023-03-13T03:03:32;144193.75;;;0.00;98.92
6938;BME280;40040;42.706;23.372;2023-03-13T03:06:00;144169.28;;;-0.10;99.50
6938;BME280;40040;42.706;23.372;2023-03-13T03:08:27;144138.69;;;-0.23;99.81
6938;BME280;40040;42.706;23.372;2023-03-13T03:10:53;144175.41;;;-0.08;99.41
6938;BME280;40040;42.706;23.372;2023-03-13T03:13:20;144128.94;;;-0.27;99.62
6938;BME280;40040;42.706;23.372;2023-03-13T03:15:49;144175.41;;;-0.08;99.29
6938;BME280;40040;42.706;23.372;2023-03-13T03:18:15;144190.06;;;-0.02;98.26
6938;BME280;40040;42.706;23.372;2023-03-13T03:20:42;144192.53;;;-0.01;98.43
6938;BME280;40040;42.706;23.372;2023-03-13T03:23:09;144141.16;;;-0.22;98.71
6938;BME280;40040;42.706;23.372;2023-03-13T03:25:36;144199.84;;;0.03;98.70
6938;BME280;40040;42.706;23.372;2023-03-13T03:28:03;144197.44;;;0.02;98.68
6938;BME280;40040;42.706;23.372;2023-03-13T03:30:30;144199.84;;;0.03;98.88
6938;BME280;40040;42.706;23.372;2023-03-13T03:32:58;144155.81;;;-0.16;98.32
6938;BME280;40040;42.706;23.372;2023-03-13T03:35:25;144161.94;;;-0.13;99.24
6938;BME280;40040;42.706;23.372;2023-03-13T03:37:51;144143.59;;;-0.21;99.86
6938;BME280;40040;42.706;23.372;2023-03-13T03:40:18;144153.38;;;-0.17;100.00
6938;BME280;40040;42.706;23.372;2023-03-13T03:42:46;144073.94;;;-0.49;100.00
6938;BME280;40040;42.706;23.372;2023-03-13T03:45:12;144155.81;;;-0.16;100.00
6938;BME280;40040;42.706;23.372;2023-03-13T03:47:39;144155.81;;;-0.16;100.00
6938;BME280;40040;42.706;23.372;2023-03-13T03:50:09;144147.25;;;-0.19;100.00
6938;BME280;40040;42.706;23.372;2023-03-13T03:52:36;144131.38;;;-0.26;100.00
6938;BME280;40040;42.706;23.372;2023-03-13T03:55:04;144120.38;;;-0.30;100.00
6938;BME280;40040;42.706;23.372;2023-03-13T03:57:31;144038.47;;;-0.64;100.00
6938;BME280;40040;42.706;23.372;2023-03-13T03:59:58;144141.16;;;-0.22;100.00
6938;BME280;40040;42.706;23.372;2023-03-13T04:02:25;144148.50;;;-0.19;100.00
6938;BME280;40040;42.706;23.372;2023-03-13T04:04:52;144138.69;;;-0.23;100.00
6938;BME280;40040;42.706;23.372;2023-03-13T04:07:20;144124.06;;;-0.29;100.00
6938;BME280;40040;42.706;23.372;2023-03-13T04:09:46;144136.28;;;-0.24;100.00
6938;BME280;40040;42.706;23.372;2023-03-13T04:12:13;144125.28;;;-0.28;100.00
6938;BME280;40040;42.706;23.372;2023-03-13T04:14:40;144111.84;;;-0.34;100.00
6938;BME280;40040;42.706;23.372;2023-03-13T04:17:07;144104.50;;;-0.37;100.00
6938;BME280;40040;42.706;23.372;2023-03-13T04:19:34;144077.59;;;-0.48;100.00
6938;BME280;40040;42.706;23.372;2023-03-13T04:22:00;144087.41;;;-0.44;100.00
6938;BME280;40040;42.706;23.372;2023-03-13T04:24:29;144087.41;;;-0.44;100.00
6938;BME280;40040;42.706;23.372;2023-03-13T04:26:56;144089.81;;;-0.43;100.00
6938;BME280;40040;42.706;23.372;2023-03-13T04:29:22;144072.72;;;-0.50;100.00
6938;BME280;40040;42.706;23.372;2023-03-13T04:31:49;144088.59;;;-0.43;100.00
6938;BME280;40040;42.706;23.372;2023-03-13T04:34:16;144062.91;;;-0.54;100.00
6938;BME280;40040;42.706;23.372;2023-03-13T04:36:43;144050.69;;;-0.59;100.00
6938;BME280;40040;42.706;23.372;2023-03-13T04:39:10;144064.16;;;-0.53;100.00
6938;BME280;40040;42.706;23.372;2023-03-13T04:41:38;144069.03;;;-0.51;100.00
6938;BME280;40040;42.706;23.372;2023-03-13T04:44:05;143982.25;;;-0.87;100.00
6938;BME280;40040;42.706;23.372;2023-03-13T04:46:32;144073.94;;;-0.49;100.00
6938;BME280;40040;42.706;23.372;2023-03-13T04:48:59;144080.03;;;-0.47;100.00
6938;BME280;40040;42.706;23.372;2023-03-13T04:51:25;144071.47;;;-0.50;100.00
6938;BME280;40040;42.706;23.372;2023-03-13T04:53:52;144072.72;;;-0.50;100.00
6938;BME280;40040;42.706;23.372;2023-03-13T04:56:21;144048.28;;;-0.60;100.00
6938;BME280;40040;42.706;23.372;2023-03-13T04:58:50;144077.59;;;-0.48;100.00
6938;BME280;40040;42.706;23.372;2023-03-13T05:01:17;144065.38;;;-0.53;100.00
6938;BME280;40040;42.706;23.372;2023-03-13T05:03:44;144050.69;;;-0.59;100.00
6938;BME280;40040;42.706;23.372;2023-03-13T05:06:11;144040.94;;;-0.63;100.00
6938;BME280;40040;42.706;23.372;2023-03-13T05:08:38;144045.81;;;-0.61;100.00
6938;BME280;40040;42.706;23.372;2023-03-13T05:11:05;144048.28;;;-0.60;100.00
6938;BME280;40040;42.706;23.372;2023-03-13T05:13:32;143996.94;;;-0.81;100.00
6938;BME280;40040;42.706;23.372;2023-03-13T05:16:00;143960.31;;;-0.96;100.00
6938;BME280;40040;42.706;23.372;2023-03-13T05:18:27;144040.94;;;-0.63;100.00
6938;BME280;40040;42.706;23.372;2023-03-13T05:20:54;143983.50;;;-0.86;100.00
6938;BME280;40040;42.706;23.372;2023-03-13T05:23:22;144071.47;;;-0.50;100.00
6938;BME280;40040;42.706;23.372;2023-03-13T05:25:49;144071.47;;;-0.50;100.00
6938;BME280;40040;42.706;23.372;2023-03-13T05:28:15;144076.38;;;-0.48;100.00
6938;BME280;40040;42.706;23.372;2023-03-13T05:30:42;144053.16;;;-0.58;100.00
6938;BME280;40040;42.706;23.372;2023-03-13T05:33:10;144064.16;;;-0.53;100.00
6938;BME280;40040;42.706;23.372;2023-03-13T05:35:37;144055.59;;;-0.57;100.00
6938;BME280;40040;42.706;23.372;2023-03-13T05:38:04;144091.06;;;-0.42;100.00
6938;BME280;40040;42.706;23.372;2023-03-13T05:40:31;144080.03;;;-0.47;100.00
6938;BME280;40040;42.706;23.372;2023-03-13T05:42:58;144125.28;;;-0.28;100.00
6938;BME280;40040;42.706;23.372;2023-03-13T05:45:24;144067.81;;;-0.52;100.00
6938;BME280;40040;42.706;23.372;2023-03-13T05:47:51;144153.38;;;-0.17;100.00
6938;BME280;40040;42.706;23.372;2023-03-13T05:50:19;144171.75;;;-0.09;100.00
6938;BME280;40040;42.706;23.372;2023-03-13T05:52:46;144168.09;;;-0.11;100.00
6938;BME280;40040;42.706;23.372;2023-03-13T05:55:13;144203.53;;;0.04;100.00
6938;BME280;40040;42.706;23.372;2023-03-13T05:57:43;144231.69;;;0.16;100.00
6938;BME280;40040;42.706;23.372;2023-03-13T06:00:11;144224.31;;;0.13;100.00
6938;BME280;40040;42.706;23.372;2023-03-13T06:02:38;144254.88;;;0.25;100.00
6938;BME280;40040;42.706;23.372;2023-03-13T06:05:05;144243.91;;;0.21;100.00
6938;BME280;40040;42.706;23.372;2023-03-13T06:07:33;144223.13;;;0.12;100.00
6938;BME280;40040;42.706;23.372;2023-03-13T06:10:00;144283.00;;;0.37;100.00
6938;BME280;40040;42.706;23.372;2023-03-13T06:12:27;144235.34;;;0.17;100.00
6938;BME280;40040;42.706;23.372;2023-03-13T06:14:54;144322.16;;;0.53;100.00
6938;BME280;40040;42.706;23.372;2023-03-13T06:17:21;144342.97;;;0.61;100.00
6938;BME280;40040;42.706;23.372;2023-03-13T06:19:49;144356.41;;;0.67;100.00
6938;BME280;40040;42.706;23.372;2023-03-13T06:22:16;144395.59;;;0.83;100.00
6938;BME280;40040;42.706;23.372;2023-03-13T06:24:45;144461.66;;;1.10;100.00
6938;BME280;40040;42.706;23.372;2023-03-13T06:27:14;144527.78;;;1.37;100.00
6938;BME280;40040;42.706;23.372;2023-03-13T06:29:40;144570.66;;;1.55;100.00
6938;BME280;40040;42.706;23.372;2023-03-13T06:32:07;144604.94;;;1.69;97.32
6938;BME280;40040;42.706;23.372;2023-03-13T06:34:34;144645.34;;;1.85;96.22
6938;BME280;40040;42.706;23.372;2023-03-13T06:37:02;144673.53;;;1.97;94.04
6938;BME280;40040;42.706;23.372;2023-03-13T06:39:29;144679.66;;;1.99;91.49
6938;BME280;40040;42.706;23.372;2023-03-13T06:41:57;144691.88;;;2.04;88.79
6938;BME280;40040;42.706;23.372;2023-03-13T06:44:24;144733.53;;;2.21;90.22
6938;BME280;40040;42.706;23.372;2023-03-13T06:46:51;144765.41;;;2.35;86.21
6938;BME280;40040;42.706;23.372;2023-03-13T06:49:18;144826.72;;;2.60;85.80
6938;BME280;40040;42.706;23.372;2023-03-13T06:51:45;144853.66;;;2.71;80.42
6938;BME280;40040;42.706;23.372;2023-03-13T06:54:12;144923.53;;;2.99;77.87
6938;BME280;40040;42.706;23.372;2023-03-13T06:56:39;144923.53;;;2.99;78.13
6938;BME280;40040;42.706;23.372;2023-03-13T06:59:07;145022.84;;;3.40;76.11
6938;BME280;40040;42.706;23.372;2023-03-13T07:01:34;145069.50;;;3.59;76.51
6938;BME280;40040;42.706;23.372;2023-03-13T07:04:02;145113.63;;;3.77;76.21
6938;BME280;40040;42.706;23.372;2023-03-13T07:06:28;145130.81;;;3.84;74.37
6938;BME280;40040;42.706;23.372;2023-03-13T07:08:57;145154.13;;;3.94;72.60
6938;BME280;40040;42.706;23.372;2023-03-13T07:11:24;145187.25;;;4.07;72.30
6938;BME280;40040;42.706;23.372;2023-03-13T07:13:53;145167.59;;;3.99;71.95
6938;BME280;40040;42.706;23.372;2023-03-13T07:16:22;145154.13;;;3.94;71.73
6938;BME280;40040;42.706;23.372;2023-03-13T07:18:49;145179.91;;;4.04;73.37
6938;BME280;40040;42.706;23.372;2023-03-13T07:21:17;145151.66;;;3.93;73.39
6938;BME280;40040;42.706;23.372;2023-03-13T07:23:47;145199.53;;;4.12;72.24
6938;BME280;40040;42.706;23.372;2023-03-13T07:26:15;145201.97;;;4.13;71.62
6938;BME280;40040;42.706;23.372;2023-03-13T07:28:42;145259.69;;;4.37;71.45
6938;BME280;40040;42.706;23.372;2023-03-13T07:31:11;145269.50;;;4.41;70.36
6938;BME280;40040;42.706;23.372;2023-03-13T07:33:40;145249.84;;;4.33;69.23
6938;BME280;40040;42.706;23.372;2023-03-13T07:36:07;145197.09;;;4.11;69.26
6938;BME280;40040;42.706;23.372;2023-03-13T07:38:34;145199.53;;;4.12;69.44
6938;BME280;40040;42.706;23.372;2023-03-13T07:41:01;145201.97;;;4.13;69.09
6938;BME280;40040;42.706;23.372;2023-03-13T07:43:28;145221.63;;;4.21;69.28
6938;BME280;40040;42.706;23.372;2023-03-13T07:45:57;145273.19;;;4.42;70.04
6938;BME280;40040;42.706;23.372;2023-03-13T07:48:27;145276.88;;;4.44;68.74
6938;BME280;40040;42.706;23.372;2023-03-13T07:50:56;145339.47;;;4.70;68.10
6938;BME280;40040;42.706;23.372;2023-03-13T07:53:24;145317.34;;;4.60;68.32
6938;BME280;40040;42.706;23.372;2023-03-13T07:55:52;145350.53;;;4.74;67.50
6938;BME280;40040;42.706;23.372;2023-03-13T07:58:19;145340.69;;;4.70;67.03
6938;BME280;40040;42.706;23.372;2023-03-13T08:00:46;145375.09;;;4.84;67.36
6938;BME280;40040;42.706;23.372;2023-03-13T08:03:13;145387.38;;;4.89;66.65
6938;BME280;40040;42.706;23.372;2023-03-13T08:05:40;145378.78;;;4.86;67.21
6938;BME280;40040;42.706;23.372;2023-03-13T08:08:08;145410.66;;;4.99;65.58
6938;BME280;40040;42.706;23.372;2023-03-13T08:10:35;145432.78;;;5.08;65.63
6938;BME280;40040;42.706;23.372;2023-03-13T08:13:02;145472.09;;;5.24;65.97
6938;BME280;40040;42.706;23.372;2023-03-13T08:15:28;145469.66;;;5.23;65.87
6938;BME280;40040;42.706;23.372;2023-03-13T08:17:55;145499.16;;;5.35;64.97
6938;BME280;40040;42.706;23.372;2023-03-13T08:20:22;145545.84;;;5.54;64.22
6938;BME280;40040;42.706;23.372;2023-03-13T08:22:49;145587.59;;;5.71;63.34
6938;BME280;40040;42.706;23.372;2023-03-13T08:25:18;145639.28;;;5.92;62.76
6938;BME280;40040;42.706;23.372;2023-03-13T08:27:44;145676.13;;;6.07;62.11
6938;BME280;40040;42.706;23.372;2023-03-13T08:30:12;145704.44;;;6.19;60.43
6938;BME280;40040;42.706;23.372;2023-03-13T08:32:39;145753.59;;;6.39;60.58
6938;BME280;40040;42.706;23.372;2023-03-13T08:35:07;145786.78;;;6.52;60.43
6938;BME280;40040;42.706;23.372;2023-03-13T08:37:34;145794.19;;;6.55;59.24
6938;BME280;40040;42.706;23.372;2023-03-13T08:40:00;145855.66;;;6.80;58.90
6938;BME280;40040;42.706;23.372;2023-03-13T08:42:29;145890.09;;;6.95;58.62
6938;BME280;40040;42.706;23.372;2023-03-13T08:44:56;145944.22;;;7.17;57.49
6938;BME280;40040;42.706;23.372;2023-03-13T08:47:23;145941.78;;;7.16;55.49
6938;BME280;40040;42.706;23.372;2023-03-13T08:49:50;145853.22;;;6.79;57.26
6938;BME280;40040;42.706;23.372;2023-03-13T08:52:16;145946.72;;;7.18;57.85
6938;BME280;40040;42.706;23.372;2023-03-13T08:54:43;146058.72;;;7.63;55.21
6938;BME280;40040;42.706;23.372;2023-03-13T08:57:10;146123.91;;;7.90;54.22
6938;BME280;40040;42.706;23.372;2023-03-13T08:59:38;146149.75;;;8.00;53.80
6938;BME280;40040;42.706;23.372;2023-03-13T09:02:05;146309.94;;;8.66;54.24
6938;BME280;40040;42.706;23.372;2023-03-13T09:04:32;146418.34;;;9.10;51.46
6938;BME280;40040;42.706;23.372;2023-03-13T09:06:58;146525.56;;;9.54;50.26
6938;BME280;40040;42.706;23.372;2023-03-13T09:09:25;146513.25;;;9.49;49.75
6938;BME280;40040;42.706;23.372;2023-03-13T09:11:52;146621.75;;;9.93;49.08
6938;BME280;40040;42.706;23.372;2023-03-13T09:14:20;146704.44;;;10.27;48.66
6938;BME280;40040;42.706;23.372;2023-03-13T09:16:48;146783.38;;;10.59;48.04
6938;BME280;40040;42.706;23.372;2023-03-13T09:19:15;146745.13;;;10.43;47.10
6938;BME280;40040;42.706;23.372;2023-03-13T09:21:42;146700.75;;;10.25;47.69
6938;BME280;40040;42.706;23.372;2023-03-13T09:24:11;146767.34;;;10.52;46.70
6938;BME280;40040;42.706;23.372;2023-03-13T09:26:38;146821.63;;;10.74;46.70
6938;BME280;40040;42.706;23.372;2023-03-13T09:29:04;146927.78;;;11.17;44.78
6938;BME280;40040;42.706;23.372;2023-03-13T09:31:32;146996.88;;;11.46;45.09
6938;BME280;40040;42.706;23.372;2023-03-13T09:34:00;147069.78;;;11.75;43.53
6938;BME280;40040;42.706;23.372;2023-03-13T09:36:28;147182.16;;;12.21;42.23
6938;BME280;40040;42.706;23.372;2023-03-13T09:38:57;147188.38;;;12.23;42.43
6938;BME280;40040;42.706;23.372;2023-03-13T09:41:28;147120.44;;;11.96;42.49
6938;BME280;40040;42.706;23.372;2023-03-13T09:44:01;147183.41;;;12.21;42.55
6938;BME280;40040;42.706;23.372;2023-03-13T09:46:35;147257.56;;;12.52;42.67
6938;BME280;40040;42.706;23.372;2023-03-13T09:49:11;147234.06;;;12.42;42.42
6938;BME280;40040;42.706;23.372;2023-03-13T09:51:43;147284.72;;;12.63;41.93
6938;BME280;40040;42.706;23.372;2023-03-13T09:54:21;147281.00;;;12.61;42.94
6938;BME280;40040;42.706;23.372;2023-03-13T09:56:55;147332.91;;;12.82;42.29
6938;BME280;40040;42.706;23.372;2023-03-13T09:59:29;147372.47;;;12.98;41.72
6938;BME280;40040;42.706;23.372;2023-03-13T10:02:02;147308.22;;;12.72;42.37
6938;BME280;40040;42.706;23.372;2023-03-13T10:04:37;147357.63;;;12.92;42.73
6938;BME280;40040;42.706;23.372;2023-03-13T10:07:09;147421.94;;;13.18;41.81
6938;BME280;40040;42.706;23.372;2023-03-13T10:09:37;147634.69;;;14.05;39.30
6938;BME280;40040;42.706;23.372;2023-03-13T10:12:11;147713.88;;;14.37;39.21
6938;BME280;40040;42.706;23.372;2023-03-13T10:14:42;147603.75;;;13.92;39.13
6938;BME280;40040;42.706;23.372;2023-03-13T10:17:20;147405.91;;;13.12;40.91
6938;BME280;40040;42.706;23.372;2023-03-13T10:19:55;147335.38;;;12.83;42.09
6938;BME280;40040;42.706;23.372;2023-03-13T10:22:26;147460.28;;;13.34;40.92
6938;BME280;40040;42.706;23.372;2023-03-13T10:24:57;147592.63;;;13.88;40.64
6938;BME280;40040;42.706;23.372;2023-03-13T10:27:24;147743.56;;;14.49;39.15
6938;BME280;40040;42.706;23.372;2023-03-13T10:29:51;147772.06;;;14.60;38.57
6938;BME280;40040;42.706;23.372;2023-03-13T10:32:18;147827.75;;;14.83;38.91
6938;BME280;40040;42.706;23.372;2023-03-13T10:34:50;147889.63;;;15.08;36.91
6938;BME280;40040;42.706;23.372;2023-03-13T10:37:23;147648.31;;;14.10;38.19
6938;BME280;40040;42.706;23.372;2023-03-13T10:39:50;147758.44;;;14.55;36.85
6938;BME280;40040;42.706;23.372;2023-03-13T10:42:21;147778.22;;;14.63;37.70
6938;BME280;40040;42.706;23.372;2023-03-13T10:44:55;147680.44;;;14.23;37.80
6938;BME280;40040;42.706;23.372;2023-03-13T10:47:23;147713.88;;;14.37;38.74
6938;BME280;40040;42.706;23.372;2023-03-13T10:49:51;147535.72;;;13.65;39.21
6938;BME280;40040;42.706;23.372;2023-03-13T10:52:43;147503.56;;;13.51;38.38
6938;BME280;40040;42.706;23.372;2023-03-13T10:55:12;147592.63;;;13.88;38.84
6938;BME280;40040;42.706;23.372;2023-03-13T10:57:41;147716.38;;;14.38;38.09
6938;BME280;40040;42.706;23.372;2023-03-13T11:00:27;147638.38;;;14.06;38.16
6938;BME280;40040;42.706;23.372;2023-03-13T11:02:55;147545.59;;;13.69;40.09
6938;BME280;40040;42.706;23.372;2023-03-13T11:05:36;147612.41;;;13.96;39.84
6938;BME280;40040;42.706;23.372;2023-03-13T11:08:18;147827.75;;;14.83;38.08
6938;BME280;40040;42.706;23.372;2023-03-13T11:10:55;147955.25;;;15.35;36.30
6938;BME280;40040;42.706;23.372;2023-03-13T11:13:37;147869.84;;;15.00;35.93
6938;BME280;40040;42.706;23.372;2023-03-13T11:16:16;147691.59;;;14.28;37.30
6938;BME280;40040;42.706;23.372;2023-03-13T11:18:54;147704.03;;;14.33;40.66
6938;BME280;40040;42.706;23.372;2023-03-13T11:21:35;147676.72;;;14.22;37.28
6938;BME280;40040;42.706;23.372;2023-03-13T11:24:10;147711.44;;;14.36;38.07
6938;BME280;40040;42.706;23.372;2023-03-13T11:26:42;147704.03;;;14.33;37.77
6938;BME280;40040;42.706;23.372;2023-03-13T11:29:19;147637.13;;;14.06;38.20
6938;BME280;40040;42.706;23.372;2023-03-13T11:31:55;147569.13;;;13.78;38.05
6938;BME280;40040;42.706;23.372;2023-03-13T11:34:27;147506.06;;;13.52;38.38
6938;BME280;40040;42.706;23.372;2023-03-13T11:36:59;147525.81;;;13.61;37.95
6938;BME280;40040;42.706;23.372;2023-03-13T11:39:50;147519.66;;;13.58;38.79
6938;BME280;40040;42.706;23.372;2023-03-13T11:42:36;147499.84;;;13.50;38.77
6938;BME280;40040;42.706;23.372;2023-03-13T11:45:10;147571.56;;;13.79;39.18
6938;BME280;40040;42.706;23.372;2023-03-13T11:47:52;147700.25;;;14.31;39.11
6938;BME280;40040;42.706;23.372;2023-03-13T11:50:31;147835.19;;;14.86;38.33
6938;BME280;40040;42.706;23.372;2023-03-13T11:53:24;147981.31;;;15.45;36.42
6938;BME280;40040;42.706;23.372;2023-03-13T11:56:06;148090.31;;;15.90;36.04
6938;BME280;40040;42.706;23.372;2023-03-13T11:58:56;148263.81;;;16.60;35.53
6938;BME280;40040;42.706;23.372;2023-03-13T12:01:28;148320.84;;;16.83;33.60
6938;BME280;40040;42.706;23.372;2023-03-13T12:03:58;148449.78;;;17.35;34.29
6938;BME280;40040;42.706;23.372;2023-03-13T12:06:29;148427.44;;;17.26;33.25
6938;BME280;40040;42.706;23.372;2023-03-13T12:09:01;148344.41;;;16.93;34.00
6938;BME280;40040;42.706;23.372;2023-03-13T12:11:35;148325.81;;;16.85;34.54
6938;BME280;40040;42.706;23.372;2023-03-13T12:14:12;148294.81;;;16.72;34.01
6938;BME280;40040;42.706;23.372;2023-03-13T12:16:44;148258.91;;;16.58;33.20
6938;BME280;40040;42.706;23.372;2023-03-13T12:19:15;148241.53;;;16.51;33.71
6938;BME280;40040;42.706;23.372;2023-03-13T12:21:47;148278.69;;;16.66;33.70
6938;BME280;40040;42.706;23.372;2023-03-13T12:24:25;148196.84;;;16.33;34.49
6938;BME280;40040;42.706;23.372;2023-03-13T12:26:59;148226.59;;;16.45;34.42
6938;BME280;40040;42.706;23.372;2023-03-13T12:29:38;148221.63;;;16.43;34.92
6938;BME280;40040;42.706;23.372;2023-03-13T12:32:11;148324.56;;;16.84;34.04
6938;BME280;40040;42.706;23.372;2023-03-13T12:34:50;148345.63;;;16.93;33.36
6938;BME280;40040;42.706;23.372;2023-03-13T12:37:24;148362.97;;;17.00;32.61
6938;BME280;40040;42.706;23.372;2023-03-13T12:39:57;148266.31;;;16.61;32.72
6938;BME280;40040;42.706;23.372;2023-03-13T12:42:40;148288.63;;;16.70;34.49
6938;BME280;40040;42.706;23.372;2023-03-13T12:45:16;148318.38;;;16.82;34.84
6938;BME280;40040;42.706;23.372;2023-03-13T12:48:07;148092.78;;;15.91;34.76
6938;BME280;40040;42.706;23.372;2023-03-13T12:50:52;148019.69;;;15.61;36.51
6938;BME280;40040;42.706;23.372;2023-03-13T12:53:46;148023.41;;;15.62;36.11
6938;BME280;40040;42.706;23.372;2023-03-13T12:56:26;148110.13;;;15.98;34.39
6938;BME280;40040;42.706;23.372;2023-03-13T12:59:01;147928.00;;;15.24;35.85
6938;BME280;40040;42.706;23.372;2023-03-13T13:01:33;147919.34;;;15.20;36.55
6938;BME280;40040;42.706;23.372;2023-03-13T13:04:05;147945.34;;;15.31;35.68
6938;BME280;40040;42.706;23.372;2023-03-13T13:06:56;147897.09;;;15.11;37.34
6938;BME280;40040;42.706;23.372;2023-03-13T13:09:26;147773.28;;;14.61;37.44